Home > Products > Valid Products > TAF

000
FTUS41 KBUF 300400 AAB
TAFBUF
TAF AMD
KBUF 300416Z 3004/3024 17004KT P6SM -TSRA BKN035CB OVC060
     FM300500 18007KT P6SM VCSH BKN035 BKN060
     FM301200 22008KT P6SM -SHRA BKN035 OVC090
     FM301400 25010KT P6SM -SHRA BKN035 OVC090
     FM301900 25009KT P6SM VCSH OVC035=



000
FTUS41 KBUF 300300 AAA
TAFBUF
TAF AMD
KBUF 300305Z 3003/3024 22006KT P6SM BKN035
     FM301000 20007KT P6SM VCSH BKN080
     FM301200 22008KT P6SM -SHRA BKN035 OVC090
     FM301400 25010KT P6SM -SHRA BKN035 OVC090
     FM301900 25009KT P6SM VCSH OVC035=



000
FTUS41 KBUF 300300 AAA
TAFIAG
TAF AMD
KIAG 300305Z 3003/3024 21007KT P6SM VCSH OVC045
      TEMPO 3003/3005 P6SM -SHRA
     FM301400 25009KT P6SM -SHRA BKN035 OVC080
     FM301700 28008KT P6SM VCSH BKN035 OVC090
     FM302000 25007KT P6SM BKN035 OVC070=



000
FTUS41 KBUF 300300 AAA
TAFROC
TAF AMD
KROC 300305Z 3003/3024 22005KT P6SM SCT045 BKN080
     FM300600 20007KT P6SM SCT045 BKN070
     FM300900 21007KT P6SM BKN045
     FM301500 23010KT P6SM VCSH BKN045 BKN100
     FM301700 26010KT P6SM -SHRA BKN035 OVC100
     FM302100 27007KT P6SM VCSH BKN035 OVC100=



000
FTUS41 KBUF 300300 AAA
TAFJHW
TAF AMD
KJHW 300305Z 3003/3024 VRB03KT P6SM VCSH BKN060
      TEMPO 3003/3006 P6SM -SHRA BKN040
     FM301200 22007KT P6SM VCSH SCT050 BKN080
     FM301500 25010KT P6SM VCSH SCT025 OVC040
     FM301700 25010KT P6SM -SHRA SCT020 OVC035
     FM302300 26007KT P6SM VCSH SCT020 BKN035
      AMD LTD TO CLD VIS AND WIND=



000
FTUS41 KBUF 300300 AAA
TAFART
TAF AMD
KART 300305Z 3003/3024 24005KT P6SM SKC
     FM300800 17005KT P6SM VCSH BKN060
     FM301200 19005KT P6SM VCSH BKN045
     FM302000 22013KT P6SM -SHRA BKN070 OVC100=



000
FTUS41 KBUF 292300
TAFROC
TAF
KROC 292337Z 3000/3024 25005KT P6SM FEW045 BKN080
     FM300600 20007KT P6SM SCT045 BKN070
     FM300900 21007KT P6SM BKN045
     FM301500 23010KT P6SM VCSH BKN045 BKN100
     FM301700 26010KT 6SM -SHRA BKN035 OVC100
     FM302100 27007KT P6SM VCSH BKN035 OVC100=



000
FTUS41 KBUF 292300
TAFIAG
TAF
KIAG 292337Z 3000/3024 23009KT P6SM SCT045 BKN060
     FM300300 21007KT P6SM VCSH OVC045
     FM301400 25009KT 6SM -SHRA BKN035 OVC080
     FM301700 28008KT P6SM VCSH BKN035 OVC090
     FM302000 25007KT P6SM BKN035 OVC070=



000
FTUS41 KBUF 292300
TAFART
TAF
KART 292337Z 3000/3024 24005KT P6SM SKC
     FM300900 17005KT P6SM SCT100 BKN110
     FM301100 18005KT P6SM BKN070 BKN080
     FM301200 19005KT P6SM SCT040 BKN045
     FM301700 21011KT P6SM VCSH BKN090 BKN100
     FM302000 22013KT 6SM -SHRA BKN070 OVC100=



000
FTUS41 KBUF 292300
TAFBUF
TAF
KBUF 292337Z 3000/3024 25010KT P6SM BKN070
     FM300200 22008KT P6SM SCT050 BKN080
     FM301000 20007KT P6SM VCSH BKN080
     FM301200 22008KT P6SM -SHRA BKN035 OVC090
     FM301400 25010KT 6SM -SHRA BKN035 OVC090
     FM301900 25009KT P6SM VCSH OVC035=



000
FTUS41 KBUF 292300
TAFJHW
TAF
KJHW 292337Z 3000/3024 27005KT P6SM SKC
     FM300800 20006KT P6SM SCT035 BKN045
     FM301200 22007KT P6SM VCSH SCT050 BKN080
     FM301500 25010KT P6SM VCSH SCT025 OVC040
     FM301700 25010KT 6SM -SHRA SCT020 OVC035
     FM302300 26007KT P6SM VCSH SCT020 BKN035
      AMD LTD TO CLD VIS AND WIND=



000
FTUS41 KBUF 292100 AAB
TAFART
TAF AMD
KART 292118Z 2921/3018 24010KT P6SM SCT060
     FM300200 VRB03KT P6SM FEW050
     FM301000 18005KT P6SM BKN050
     FM301600 20010KT P6SM BKN050
     FM301700 21011KT P6SM VCSH BKN045=



000
FTUS41 KBUF 292100 AAB
TAFJHW
TAF AMD
KJHW 292118Z 2921/3018 29009KT P6SM BKN050
     FM300300 27006KT P6SM BKN050
     FM301100 22007KT P6SM VCSH BKN025
     FM301700 25010KT 6SM -SHRA OVC035
      AMD LTD TO CLD VIS AND WIND=



000
FTUS41 KBUF 292100 AAB
TAFBUF
TAF AMD
KBUF 292118Z 2921/3018 24011KT P6SM BKN050
     FM300300 24006KT P6SM BKN040
     FM301000 20007KT P6SM VCSH BKN035
     FM301100 21007KT 6SM -SHRA OVC025
     FM301500 26011KT 6SM -SHRA OVC045=



000
FTUS41 KBUF 292100 AAB
TAFROC
TAF AMD
KROC 292118Z 2921/3018 32008KT P6SM BKN060
     FM300100 24005KT P6SM BKN050
     FM301400 22009KT P6SM VCSH BKN035
     FM301700 26010KT 6SM -SHRA OVC045=



000
FTUS41 KBUF 292100 AAB
TAFIAG
TAF AMD
KIAG 292118Z 2921/3018 23005KT P6SM SCT050 BKN070
     FM301000 21007KT P6SM BKN030
     FM301100 22007KT P6SM VCSH BKN030
     FM301400 27009KT 6SM -SHRA OVC050=



000
FTUS41 KBUF 291900 AAA
TAFBUF
TAF AMD
KBUF 291926Z 2919/3018 24011KT P6SM BKN050
     FM300300 24006KT P6SM BKN040
     FM301000 20007KT P6SM VCSH BKN035
     FM301100 21007KT 6SM -SHRA OVC025
     FM301500 26011KT 6SM -SHRA OVC045=



000
FTUS41 KBUF 291900 AAA
TAFJHW
TAF AMD
KJHW 291926Z 2919/3018 29009KT P6SM BKN050
     FM300300 27006KT P6SM BKN050
     FM301100 22007KT P6SM VCSH BKN025
     FM301700 25010KT 6SM -SHRA OVC035
      AMD LTD TO CLD VIS AND WIND=



000
FTUS41 KBUF 291900 AAA
TAFART
TAF AMD
KART 291926Z 2919/3018 24010KT P6SM SCT060
     FM300200 VRB03KT P6SM FEW050
     FM301000 18005KT P6SM BKN050
     FM301600 20010KT P6SM BKN050
     FM301700 21011KT P6SM VCSH BKN045=



000
FTUS41 KBUF 291900 AAA
TAFROC
TAF AMD
KROC 291926Z 2919/3018 32008KT P6SM BKN060
     FM300100 24005KT P6SM BKN050
     FM301400 22009KT P6SM VCSH BKN035
     FM301700 26010KT 6SM -SHRA OVC045=



000
FTUS41 KBUF 291900 AAA
TAFIAG
TAF AMD
KIAG 291926Z 2919/3018 23005KT P6SM SCT050
     FM301000 21007KT P6SM BKN030
     FM301100 22007KT P6SM VCSH BKN030
     FM301400 27009KT 6SM -SHRA OVC050=



000
FTUS41 KBUF 291700 RRA
TAFART
TAF
KART 291744Z 2918/3018 26008KT P6SM BKN050
     FM292200 25010KT P6SM SCT050
     FM300200 VRB03KT P6SM FEW050
     FM301000 18005KT P6SM BKN050
     FM301600 20010KT P6SM BKN050
     FM301700 21011KT P6SM VCSH BKN045=



000
FTUS41 KBUF 291700 RRA
TAFROC
TAF
KROC 291744Z 2918/3018 32008KT P6SM BKN050
     FM300100 24005KT P6SM BKN050
     FM301400 22009KT P6SM VCSH BKN035
     FM301700 26010KT 6SM -SHRA OVC045=



000
FTUS41 KBUF 291700 RRA
TAFIAG
TAF
KIAG 291744Z 2918/3018 31006KT P6SM BKN060
     FM292100 23012KT P6SM VCSH BKN050
     FM300000 21007KT P6SM BKN050
     FM301000 21007KT P6SM BKN030
     FM301100 22007KT P6SM VCSH BKN030
     FM301400 27009KT 6SM -SHRA OVC050=



000
FTUS41 KBUF 291700 RRA
TAFBUF
TAF
KBUF 291744Z 2918/3018 26007KT P6SM BKN040
     FM292100 24011KT P6SM VCSH BKN050
     FM292300 24010KT P6SM BKN050
     FM301000 20007KT P6SM VCSH BKN035
     FM301100 21007KT 6SM -SHRA OVC025
     FM301500 26011KT 6SM -SHRA OVC045=



000
FTUS41 KBUF 291700 RRA
TAFJHW
TAF
KJHW 291744Z 2918/3018 29008KT P6SM BKN060
     FM292000 27009KT P6SM VCSH BKN050
     FM292300 27006KT P6SM BKN050
     FM301100 22007KT P6SM VCSH BKN025
     FM301700 25010KT 6SM -SHRA OVC035
      AMD LTD TO CLD VIS AND WIND=



000
FTUS41 KBUF 291500 AAA
TAFBUF
TAF AMD
KBUF 291541Z 2916/3012 VRB03KT P6SM SCT025 BKN060
     FM292100 24009KT P6SM VCSH BKN040
     FM292300 24009KT P6SM BKN040
     FM300600 19008KT P6SM BKN050
     FM301000 20009KT P6SM VCSH BKN040
     FM301100 21008KT 4SM SHRA BKN030=



000
FTUS41 KBUF 291500 AAA
TAFIAG
TAF AMD
KIAG 291541Z 2916/3012 30005KT P6SM SCT020 OVC060
     FM291700 28008KT P6SM BKN040
     FM292100 24009KT P6SM VCSH BKN040
     FM292200 24009KT P6SM BKN040
     FM300500 19007KT P6SM BKN040
     FM300600 19007KT P6SM VCSH BKN040=



000
FTUS41 KBUF 291500 AAA
TAFROC
TAF AMD
KROC 291541Z 2916/3012 VRB04KT P6SM FEW020 BKN060
     FM292300 26005KT P6SM BKN040
     FM300300 21007KT P6SM BKN050=



000
FTUS41 KBUF 291500 AAA
TAFART
TAF AMD
KART 291541Z 2916/3012 28008KT P6SM SCT040
     FM291900 26012KT P6SM SCT050
     FM300000 25007KT P6SM SCT050
     FM300200 21006KT P6SM SCT050
     FM300400 19006KT P6SM BKN050=



000
FTUS41 KBUF 291500 AAA
TAFJHW
TAF AMD
KJHW 291541Z 2916/3012 VRB03KT P6SM SCT018 OVC050
     FM292000 28009KT P6SM VCSH BKN035
     FM292300 27008KT P6SM BKN035
     FM300200 23007KT P6SM BKN045
     FM300600 19009KT P6SM BKN045
     FM301100 21012KT P6SM VCSH BKN035
      AMD LTD TO CLD VIS AND WIND=



000
FTUS41 KBUF 291100
TAFBUF
TAF
KBUF 291127Z 2912/3012 29005KT P6SM BKN060
     FM291300 27006KT P6SM BKN050
     FM292100 24009KT P6SM VCSH BKN040
     FM292300 24009KT P6SM BKN040
     FM300600 19008KT P6SM BKN050
     FM301000 20009KT P6SM VCSH BKN040
     FM301100 21008KT 4SM SHRA BKN030=



000
FTUS41 KBUF 291100
TAFROC
TAF
KROC 291127Z 2912/3012 26005KT P6SM BKN060 OVC080
     FM291500 30008KT P6SM BKN050
     FM292300 26005KT P6SM BKN040
     FM300300 21007KT P6SM BKN050=



000
FTUS41 KBUF 291100
TAFIAG
TAF
KIAG 291127Z 2912/3012 30005KT P6SM FEW025 OVC060
     FM291700 28008KT P6SM BKN040
     FM292100 24009KT P6SM VCSH BKN040
     FM292200 24009KT P6SM BKN040
     FM300500 19007KT P6SM BKN040
     FM300600 19007KT P6SM VCSH BKN040=



000
FTUS41 KBUF 291100
TAFART
TAF
KART 291127Z 2912/3012 23003KT P6SM SKC
     FM291300 28006KT P6SM SCT050
     FM291900 26012KT P6SM SCT050
     FM300000 25007KT P6SM SCT050
     FM300200 21006KT P6SM SCT050
     FM300400 19006KT P6SM BKN050=



000
FTUS41 KBUF 291100
TAFJHW
TAF
KJHW 291127Z 2912/3012 29006KT P6SM SCT018 OVC050
     FM292000 28009KT P6SM VCSH BKN035
     FM292300 27008KT P6SM BKN035
     FM300200 23007KT P6SM BKN045
     FM300600 19009KT P6SM BKN045
     FM301100 21012KT P6SM VCSH BKN035
      AMD LTD TO CLD VIS AND WIND=



000
FTUS41 KBUF 290900 AAA
TAFART
TAF AMD
KART 290930Z 2909/3006 28005KT P6SM OVC070
     FM291500 27010KT P6SM SCT250
     FM292300 23007KT P6SM SCT100
     FM300500 17007KT P6SM BKN090=



000
FTUS41 KBUF 290900 AAA
TAFBUF
TAF AMD
KBUF 290930Z 2909/3006 28004KT P6SM BKN060
     FM291700 27009KT P6SM BKN045
     FM292000 25010KT P6SM VCSH BKN040
     FM300300 21008KT P6SM VCSH BKN035=



000
FTUS41 KBUF 290900 AAA
TAFIAG
TAF AMD
KIAG 290930Z 2909/3006 30007KT P6SM OVC060
     FM291700 27009KT P6SM BKN050
     FM292000 25009KT P6SM VCSH BKN045
     FM300200 21007KT P6SM VCSH BKN035=



000
FTUS41 KBUF 290900 AAA
TAFJHW
TAF AMD
KJHW 290930Z 2909/3006 28004KT P6SM OVC040
     FM291900 28010KT P6SM VCSH BKN040
     FM300200 23007KT P6SM BKN090
     FM300500 20009KT P6SM BKN070
      AMD LTD TO CLD VIS AND WIND=



000
FTUS41 KBUF 290900 AAA
TAFROC
TAF AMD
KROC 290930Z 2909/3006 27006KT P6SM OVC060
     FM291300 29007KT P6SM SCT250
     FM291700 30008KT P6SM SCT045
     FM292000 29007KT P6SM BKN050
     FM292300 26006KT P6SM BKN090
     FM300200 22006KT P6SM BKN090=



000
FTUS41 KBUF 290500
TAFIAG
TAF
KIAG 290533Z 2906/3006 31008KT P6SM SCT060
     FM290900 28006KT P6SM SCT150
     FM291700 27009KT P6SM BKN050
     FM292000 25009KT P6SM VCSH BKN045
     FM300200 21007KT P6SM VCSH BKN035=



000
FTUS41 KBUF 290500
TAFBUF
TAF
KBUF 290533Z 2906/3006 29006KT P6SM SCT060
     FM291000 26004KT P6SM BKN090
     FM291200 26007KT P6SM BKN200
     FM291700 27009KT P6SM BKN045
     FM292000 25010KT P6SM VCSH BKN040
     FM300300 21008KT P6SM VCSH BKN035=



000
FTUS41 KBUF 290500
TAFJHW
TAF
KJHW 290533Z 2906/3006 33008KT P6SM SCT040 BKN050
     FM290700 30006KT P6SM BKN025
     FM290900 29006KT 4SM BR BKN015
     FM291300 30005KT P6SM BKN030
     FM291900 28010KT P6SM VCSH BKN040
     FM300200 23007KT P6SM BKN090
     FM300500 20009KT P6SM BKN070
      AMD LTD TO CLD VIS AND WIND=



000
FTUS41 KBUF 290500
TAFROC
TAF
KROC 290533Z 2906/3006 28005KT P6SM SCT070 SCT250
     FM290700 30006KT P6SM OVC045
     FM291300 29007KT P6SM SCT250
     FM291700 30008KT P6SM SCT045
     FM292000 29007KT P6SM BKN050
     FM292300 26006KT P6SM BKN090
     FM300200 22006KT P6SM BKN090=



000
FTUS41 KBUF 290500
TAFART
TAF
KART 290533Z 2906/3006 29004KT P6SM SCT080
     FM290800 VRB03KT P6SM BKN250
     FM291500 27010KT P6SM SCT250
     FM292300 23007KT P6SM SCT100
     FM300500 17007KT P6SM BKN090=



000
FTUS41 KBUF 290300 AAB
TAFJHW
TAF AMD
KJHW 290334Z 2904/2924 33007KT P6SM SCT025 OVC060
     FM290600 32008KT P6SM BKN025
     FM290900 28006KT 4SM BR BKN015
     FM291300 29005KT P6SM BKN025
     FM291900 29010KT P6SM VCSH BKN025
     FM292200 28009KT P6SM VCSH BKN060
      AMD LTD TO CLD VIS AND WIND=



000
FTUS41 KBUF 290200 AAA
TAFROC
TAF AMD
KROC 290259Z 2903/2924 29007KT P6SM SCT050 BKN080
     FM290600 30009KT P6SM BKN050
     FM291000 30006KT P6SM SCT045
     FM291300 30006KT P6SM BKN045
     FM291700 30006KT P6SM SCT045
     FM292000 27006KT P6SM BKN045
     FM292200 26006KT P6SM BKN060=



000
FTUS41 KBUF 290200 AAA
TAFART
TAF AMD
KART 290259Z 2903/2924 30006KT P6SM VCSH OVC050
     FM290500 31006KT P6SM BKN050
     FM291700 27010KT P6SM BKN150=



000
FTUS41 KBUF 290200 AAA
TAFBUF
TAF AMD
KBUF 290259Z 2903/2924 31011KT P6SM BKN070
     FM290600 30008KT P6SM SCT040
     FM291000 26004KT P6SM SCT040
     FM291700 25008KT P6SM BKN045
     FM292000 25011KT P6SM VCSH BKN040
     FM292300 25009KT P6SM VCSH BKN035=



000
FTUS41 KBUF 290200 AAA
TAFIAG
TAF AMD
KIAG 290259Z 2903/2924 32008KT P6SM BKN090
     FM290500 31011G17KT P6SM SCT040
     FM290800 29007KT P6SM SCT045
     FM291200 25004KT P6SM BKN045
     FM291700 25009KT P6SM BKN050
     FM292000 24011KT P6SM VCSH BKN045=



000
FTUS41 KBUF 290200 AAA
TAFJHW
TAF AMD
KJHW 290259Z 2903/2924 33011KT P6SM BKN018 OVC025
     FM290600 32008KT P6SM BKN015
     FM290900 28006KT 4SM BR BKN015
     FM291300 29005KT P6SM BKN025
     FM291900 29010KT P6SM VCSH BKN025
     FM292200 28009KT P6SM VCSH BKN060
      AMD LTD TO CLD VIS AND WIND=



000
FTUS41 KBUF 282300
TAFBUF
TAF
KBUF 282330Z 2900/2924 33013KT P6SM BKN060
     FM290500 30008KT P6SM SCT040
     FM291000 26004KT P6SM SCT040
     FM291700 25008KT P6SM BKN045
     FM292000 25011KT P6SM VCSH BKN040
     FM292300 25009KT P6SM VCSH BKN035=



000
FTUS41 KBUF 282300
TAFJHW
TAF
KJHW 282330Z 2900/2924 31003KT P6SM OVC050
     FM290500 32008KT P6SM BKN030
     FM290900 28006KT 4SM BR BKN015
     FM291300 29005KT P6SM BKN025
     FM291900 29010KT P6SM VCSH BKN025
     FM292200 28009KT P6SM VCSH BKN060
      AMD LTD TO CLD VIS AND WIND=



000
FTUS41 KBUF 282300
TAFART
TAF
KART 282330Z 2900/2924 34006KT P6SM -RA OVC080
     FM290200 29006KT P6SM VCSH OVC040
     FM290300 28005KT P6SM OVC050
     FM290700 31006KT P6SM BKN050
     FM291700 27010KT P6SM BKN150=



000
FTUS41 KBUF 282300
TAFROC
TAF
KROC 282330Z 2900/2924 26003KT P6SM VCSH SCT030 OVC045
     FM290200 28008KT P6SM OVC040
     FM290600 30009KT P6SM BKN050
     FM291000 30006KT P6SM SCT045
     FM291300 30006KT P6SM BKN045
     FM291700 30006KT P6SM SCT045
     FM292000 27006KT P6SM BKN045
     FM292200 26006KT P6SM BKN060=



000
FTUS41 KBUF 282300
TAFIAG
TAF
KIAG 282330Z 2900/2924 33014G20KT P6SM BKN070
     FM290400 31011G17KT P6SM SCT040
     FM290800 29007KT P6SM SCT045
     FM291200 25004KT P6SM BKN045
     FM291700 25009KT P6SM BKN050
     FM292000 24011KT P6SM VCSH BKN045=



000
FTUS41 KBUF 282100 AAB
TAFJHW
TAF AMD
KJHW 282103Z 2821/2918 34007KT P6SM VCSH SCT015 OVC040
     FM282300 33011KT P6SM OVC025
     FM290500 32008KT P6SM BKN035
     FM290900 28006KT 4SM BR BKN025
     FM291200 29005KT P6SM BKN250
     FM291500 29007KT P6SM BKN050
      AMD LTD TO CLD VIS AND WIND=



000
FTUS41 KBUF 282100 AAB
TAFROC
TAF AMD
KROC 282103Z 2821/2918 34006KT P6SM VCSH SCT015 OVC035
     FM290100 30010KT P6SM BKN035
     FM290900 30007KT P6SM BKN250=



000
FTUS41 KBUF 282100 AAB
TAFART
TAF AMD
KART 282103Z 2821/2918 36011KT P6SM -RA BKN012 OVC018
     FM290000 01009KT P6SM VCSH OVC025
     FM290400 30005KT P6SM OVC045
     FM291000 31006KT P6SM SCT250=



000
FTUS41 KBUF 282100 AAB
TAFIAG
TAF AMD
KIAG 282103Z 2821/2918 33014KT P6SM BKN040
     FM290100 31010KT P6SM SCT040
     FM290700 30008KT P6SM SCT150
     FM291100 26004KT P6SM SCT250
     FM291700 25009KT P6SM BKN100=



000
FTUS41 KBUF 282100 AAB
TAFBUF
TAF AMD
KBUF 282103Z 2821/2918 03005KT P6SM VCSH SCT025 OVC035
     FM290100 33009KT P6SM BKN035
     FM290500 30008KT P6SM SCT040
     FM291100 27005KT P6SM SCT250=



000
FTUS41 KBUF 281900 AAA
TAFART
TAF AMD
KART 281910Z 2819/2918 01011G20KT P6SM -RA OVC015
     FM282300 01009KT P6SM VCSH OVC025
     FM290200 30005KT P6SM OVC045
     FM290700 31006KT P6SM SCT250=



000
FTUS41 KBUF 281900 AAA
TAFJHW
TAF AMD
KJHW 281909Z 2819/2918 34011G20KT P6SM VCSH OVC004
     FM282200 33011KT P6SM OVC007
     FM290500 32008KT P6SM BKN035
     FM290900 28006KT 4SM BR BKN025
     FM291200 29005KT P6SM BKN250
     FM291500 29007KT P6SM BKN050
      AMD LTD TO CLD VIS AND WIND=



000
FTUS41 KBUF 281900 AAA
TAFROC
TAF AMD
KROC 281908Z 2819/2918 36011G22KT P6SM -RA OVC009
     FM282100 34011G21KT P6SM VCSH OVC025
     FM282300 30010KT P6SM BKN035
     FM290900 30007KT P6SM BKN250=



000
FTUS41 KBUF 281900 AAA
TAFBUF
TAF AMD
KBUF 281907Z 2819/2918 34011KT P6SM VCSH OVC025
     FM282200 33009KT P6SM BKN035
     FM290200 30008KT P6SM SCT040
     FM290900 27005KT P6SM SCT250=



000
FTUS41 KBUF 281900 AAA
TAFIAG
TAF AMD
KIAG 281907Z 2819/2918 34010KT P6SM BKN035
     FM290100 31010KT P6SM SCT040
     FM290700 30008KT P6SM SCT150
     FM291100 26004KT P6SM SCT250
     FM291700 25009KT P6SM BKN100=



000
FTUS41 KBUF 281700
TAFIAG
TAF
KIAG 281730Z 2818/2918 35011KT P6SM OVC008
     FM282000 34011KT P6SM OVC025
     FM290100 31010KT P6SM SCT040
     FM290700 30008KT P6SM SCT150
     FM291100 26004KT P6SM SCT250
     FM291700 25009KT P6SM BKN100=



000
FTUS41 KBUF 281700
TAFJHW
TAF
KJHW 281730Z 2818/2918 34012G21KT 4SM BR OVC002
      TEMPO 2818/2820 1/2SM -RA FG
     FM282000 33014KT P6SM VCSH OVC007
     FM290500 32008KT P6SM BKN035
     FM290900 28006KT 4SM BR BKN025
     FM291200 29005KT P6SM BKN250
     FM291500 29007KT P6SM BKN050
      AMD LTD TO CLD VIS AND WIND=



000
FTUS41 KBUF 281700
TAFBUF
TAF
KBUF 281730Z 2818/2918 34011G20KT P6SM OVC015
      TEMPO 2818/2819 2SM -RA BR OVC008
     FM282200 33009KT P6SM BKN035
     FM290200 30008KT P6SM SCT040
     FM290900 27005KT P6SM SCT250=



000
FTUS41 KBUF 281700
TAFART
TAF
KART 281730Z 2818/2918 01012G22KT 4SM -RA BR OVC025
      TEMPO 2818/2820 2SM RA BR OVC015
     FM282300 01008KT P6SM -SHRA OVC045
     FM290200 30005KT P6SM OVC045
     FM290700 31006KT P6SM SCT250=



000
FTUS41 KBUF 281700
TAFROC
TAF
KROC 281730Z 2818/2918 36011G22KT 5SM -RA BR OVC007
     FM282000 34011G21KT P6SM VCSH OVC025
     FM282300 30010KT P6SM BKN035
     FM290900 30007KT P6SM BKN250=



000
FTUS41 KBUF 281500 AAB
TAFJHW
TAF AMD
KJHW 281558Z 2816/2912 36011KT P6SM -SHRA OVC013
     FM282100 33013KT P6SM OVC020
     FM290100 32011KT P6SM OVC035
     FM290600 31008KT P6SM BKN025
      AMD LTD TO CLD VIS AND WIND=



000
FTUS41 KBUF 281500 AAB
TAFART
TAF AMD
KART 281557Z 2816/2912 02011KT 3SM -RA BR OVC015
      TEMPO 2816/2818 1SM +RA BR OVC008
     FM282000 36011G20KT 5SM -RA BR OVC025
     FM282300 32011KT P6SM -SHRA OVC035
     FM290100 31008KT P6SM VCSH OVC040
     FM290300 29006KT P6SM OVC050=



000
FTUS41 KBUF 281500 AAB
TAFIAG
TAF AMD
KIAG 281528Z 2815/2912 01011G20KT P6SM -RA OVC011
      TEMPO 2815/2818 3SM -RA BR OVC002
     FM281800 34014KT P6SM OVC025
     FM282000 33015KT P6SM OVC035
     FM290200 31010KT P6SM SCT050
     FM291100 26005KT P6SM SCT050=



000
FTUS41 KBUF 281300 AAA
TAFIAG
TAF AMD
KIAG 281347Z 2814/2912 02011G20KT P6SM OVC007
     FM281430 01011G20KT P6SM -SHRA OVC011
     FM281800 34014KT P6SM OVC025
     FM282000 33015KT P6SM OVC035
     FM290200 31010KT P6SM SCT050
     FM291100 26005KT P6SM SCT050=



000
FTUS41 KBUF 281300 AAB
TAFBUF
TAF AMD
KBUF 281347Z 2814/2912 01011G19KT P6SM -RA OVC008
     FM281800 34013KT P6SM VCSH OVC025
     FM282100 32014KT P6SM OVC035
     FM290200 30010KT P6SM BKN050
     FM290300 30009KT P6SM SCT050
     FM291100 25005KT P6SM SCT050=



000
FTUS41 KBUF 281300 AAA
TAFART
TAF AMD
KART 281347Z 2814/2912 02011KT 5SM -RA BR OVC006
     FM282000 36011G20KT 3SM -RA BR OVC025
     FM282300 32011KT P6SM -SHRA OVC035
     FM290100 31008KT P6SM VCSH OVC040
     FM290300 29006KT P6SM OVC050=



000
FTUS41 KBUF 281300 AAA
TAFJHW
TAF AMD
KJHW 281347Z 2814/2912 27011KT P6SM -RA OVC025
     FM281500 32011G20KT 5SM -RA BR OVC007
     FM281900 34013KT P6SM -SHRA OVC015
     FM282100 33013KT P6SM OVC020
     FM290100 32011KT P6SM OVC035
     FM290600 31008KT P6SM BKN025
      AMD LTD TO CLD VIS AND WIND=



000
FTUS41 KBUF 281300 AAA
TAFROC
TAF AMD
KROC 281347Z 2814/2912 02017G24KT 2SM +RA BR OVC005
     FM281500 35011G20KT 5SM -RA BR OVC007
     FM282000 32014KT P6SM VCSH OVC025
     FM282200 31011KT P6SM OVC040
     FM291000 28007KT P6SM SCT040=



000
FTUS41 KBUF 281300 AAA
TAFBUF
TAF AMD
KBUF 281313Z 2813/2912 02013KT P6SM -RA OVC050
     FM281800 34013KT P6SM VCSH OVC035
     FM282100 32014KT P6SM OVC035
     FM290200 30010KT P6SM BKN050
     FM290300 30009KT P6SM SCT050
     FM291100 25005KT P6SM SCT050=



000
FTUS41 KBUF 281100
TAFIAG
TAF
KIAG 281127Z 2812/2912 03014KT 3SM +RA VCTS OVC007CB
     FM281300 02014KT 3SM +RA OVC012
     FM281700 34014KT P6SM -SHRA OVC020
     FM281800 34014KT P6SM OVC025
     FM281900 33015KT P6SM OVC035
     FM290200 31010KT P6SM SCT050
     FM291100 26005KT P6SM SCT050=



000
FTUS41 KBUF 281100
TAFJHW
TAF
KJHW 281127Z 2812/2912 27008KT 3SM +RA VCTS OVC007CB
     FM281400 31011KT 3SM +RA VCTS OVC007CB
     FM281600 34012KT 3SM +RA OVC007
     FM281700 34013KT 4SM RA OVC012
     FM281900 34013KT 6SM -SHRA OVC015
     FM282100 33013KT P6SM OVC020
     FM290100 32011KT P6SM OVC035
     FM290600 31008KT P6SM BKN025
      AMD LTD TO CLD VIS AND WIND=



000
FTUS41 KBUF 281100
TAFROC
TAF
KROC 281127Z 2812/2912 04014G20KT 3SM +RA VCTS OVC007CB
     FM281300 03017G24KT 3SM +RA OVC007
     FM281500 35013G20KT 3SM +RA OVC007
     FM282000 32014KT P6SM VCSH OVC025
     FM282200 31011KT P6SM OVC040
     FM291000 28007KT P6SM SCT040=



000
FTUS41 KBUF 281100
TAFBUF
TAF
KBUF 281127Z 2812/2912 02013KT 3SM +RA VCTS OVC007CB
     FM281400 35013KT 3SM +RA OVC007
     FM281800 34013KT P6SM VCSH OVC015
     FM282100 32014KT P6SM OVC035
     FM290200 30010KT P6SM BKN050
     FM290300 30009KT P6SM SCT050
     FM291100 25005KT P6SM SCT050=



000
FTUS41 KBUF 281100
TAFART
TAF
KART 281127Z 2812/2912 01013KT 3SM +RA OVC004
     FM281400 02013KT 3SM +RA OVC008
     FM282000 34014KT 3SM +RA OVC025
     FM282200 33013KT 4SM RA OVC035
     FM282300 32011KT 6SM -SHRA OVC035
     FM290100 31008KT P6SM VCSH OVC040
     FM290300 29006KT P6SM OVC050=



000
FTUS41 KBUF 280900 AAA
TAFROC
TAF AMD
KROC 280944Z 2810/2906 04007KT P6SM -RA BKN008 OVC028
     FM281100 03012G18KT 4SM SHRA BKN008
     FM281700 34015G21KT 6SM -SHRA BKN035 OVC040
     FM281800 34014G20KT P6SM VCSH OVC040
     FM282000 31013G19KT P6SM BKN050
     FM290100 29009KT P6SM BKN040=



000
FTUS41 KBUF 280900 AAA
TAFIAG
TAF AMD
KIAG 280944Z 2810/2906 04006KT 6SM -RA BKN008
     FM281100 02013KT 4SM SHRA BKN007 OVC040
     FM281600 36013KT P6SM VCSH BKN035 OVC250
     FM281800 34013KT P6SM BKN200
     FM290400 31009KT P6SM SCT050=



000
FTUS41 KBUF 280900 AAA
TAFART
TAF AMD
KART 280944Z 2810/2906 03009KT P6SM FEW011 BKN035 OVC070
     FM281000 03009KT 6SM -RA OVC040
     FM281300 02011KT 6SM -RA BKN025
     FM281600 01012KT 6SM -RA BKN012 OVC040
     FM282000 34012KT P6SM VCSH OVC035
     FM282200 32010KT P6SM BKN045
     FM290300 30007KT P6SM BKN050=



000
FTUS41 KBUF 280900 AAC
TAFJHW
TAF AMD
KJHW 280944Z 2810/2906 22005KT P6SM SCT003 BKN009 OVC050
     FM281100 34010KT 4SM SHRA BKN009
     FM281500 35010KT 4SM SHRA BKN012 OVC040
     FM281700 35011KT P6SM VCSH BKN015 OVC250
     FM282200 33011KT P6SM BKN035
     FM290300 31007KT P6SM BKN035
      AMD LTD TO CLD VIS AND WIND=



000
FTUS41 KBUF 280900 AAA
TAFBUF
TAF AMD
KBUF 280944Z 2810/2906 02008KT 5SM -RA BR BKN007 BKN015
     FM281100 01012KT 4SM SHRA BKN007 OVC040
     FM281600 36011KT 6SM -SHRA BKN035 OVC040
     FM281800 34013KT P6SM BKN200
     FM290200 30009KT P6SM SCT050=



000
FTUS41 KBUF 280700 AAB
TAFJHW
TAF AMD
KJHW 280727Z 2807/2906 05003KT P6SM BKN025
     FM280900 35011KT 2SM +RA VCTS BKN005 OVC040CB
     FM281500 35010KT 2SM +RA BKN012 OVC040
     FM281700 35011KT P6SM VCSH BKN015 OVC250
     FM282200 33011KT P6SM BKN035
     FM290300 31007KT P6SM BKN035
      AMD LTD TO CLD VIS AND WIND=



000
FTUS41 KBUF 280600 AAA
TAFJHW
TAF AMD
KJHW 280628Z 2806/2906 00000KT P6SM FEW029 OVC045
      TEMPO 2806/2808 BKN009
     FM280800 35011KT 2SM +RA BKN003 OVC040
     FM281500 35010KT 3SM +RA BKN012 OVC040
     FM281700 35011KT P6SM VCSH BKN015 OVC250
     FM282200 33011KT P6SM BKN035
     FM290300 31007KT P6SM BKN035
      AMD LTD TO CLD VIS AND WIND=



000
FTUS41 KBUF 280500
TAFJHW
TAF
KJHW 280531Z 2806/2906 VRB03KT 1SM BR BKN009
     FM280900 35011KT 2SM +RA BKN003 OVC040
     FM281500 35010KT 3SM +RA BKN012 OVC040
     FM281700 35011KT P6SM VCSH BKN015 OVC250
     FM282200 33011KT P6SM BKN035
     FM290300 31007KT P6SM BKN035
      AMD LTD TO CLD VIS AND WIND=



000
FTUS41 KBUF 280500
TAFIAG
TAF
KIAG 280531Z 2806/2906 02005KT P6SM BKN005 OVC090
     FM280900 02014G20KT 2SM +RA BKN007 OVC040
     FM281500 36013KT P6SM VCSH BKN035 OVC250
     FM281800 34013KT P6SM BKN200
     FM290400 31009KT P6SM SCT050=



000
FTUS41 KBUF 280500
TAFBUF
TAF
KBUF 280531Z 2806/2906 04004KT P6SM BKN007 OVC035
     FM281000 01012KT 2SM +RA BKN007 OVC040
     FM281400 36011KT 3SM +RA BKN020 OVC040
     FM281600 36011KT 6SM -SHRA BKN035 OVC040
     FM281800 34013KT P6SM BKN200
     FM290200 30009KT P6SM SCT050=



000
FTUS41 KBUF 280500
TAFROC
TAF
KROC 280531Z 2806/2906 35006KT 2SM +TSRA BR SCT011 SCT022CB OVC029
     FM280800 02011KT 2SM +RA BKN012 OVC040
     FM281700 34015G21KT 6SM -SHRA BKN035 OVC040
     FM281800 34014G20KT P6SM VCSH OVC040
     FM282000 31013G19KT P6SM BKN050
     FM290100 29009KT P6SM BKN040=



000
FTUS41 KBUF 280500
TAFART
TAF
KART 280531Z 2806/2906 05006KT P6SM SCT120
     FM280800 03007KT 4SM SHRA VCTS BKN040CB OVC090
     FM281000 03009KT 2SM +RA OVC040
     FM281200 02011KT 2SM +RA BKN030 OVC040
     FM281600 01012KT 2SM +RA BKN012 OVC040
     FM282000 34012KT P6SM VCSH OVC035
     FM282200 32010KT P6SM BKN045
     FM290300 30007KT P6SM BKN050=



000
FTUS41 KBUF 280300 AAB
TAFIAG
TAF AMD
KIAG 280330Z 2804/2824 28011KT P6SM -RA VCTS BKN050CB OVC110
      TEMPO 2804/2808 3SM -TSRA BKN025CB
     FM280800 01011KT 3SM RA VCTS BKN007 OVC040CB
     FM281400 36011KT 6SM -SHRA BKN035 OVC040
     FM281800 34012G18KT P6SM BKN100=



000
FTUS41 KBUF 280300 AAA
TAFART
TAF AMD
KART 280330Z 2804/2824 VRB03KT P6SM BKN150
     FM280500 04005KT P6SM VCSH BKN100 BKN250
     FM280700 03007KT 6SM -SHRA VCTS SCT040CB OVC090
     FM281000 03009KT 3SM RA SCT040 OVC070
     FM281500 01012KT 6SM -SHRA BKN025 OVC040
     FM282000 34012KT 6SM BR VCSH OVC035=



000
FTUS41 KBUF 280300 AAA
TAFBUF
TAF AMD
KBUF 280330Z 2804/2824 28013KT P6SM -RA VCTS SCT030 BKN050CB OVC070
      TEMPO 2804/2808 3SM -TSRA BKN025CB
     FM280800 01011KT 4SM RA VCTS BKN007 OVC040CB
     FM281400 36011KT 6SM -SHRA BKN035 OVC040
     FM281800 34012G18KT P6SM BKN100=



000
FTUS41 KBUF 280300 AAA
TAFROC
TAF AMD
KROC 280330Z 2804/2824 12008KT 5SM -TSRA BKN045CB OVC110
     FM280400 01004KT 5SM -SHRA VCTS OVC040CB
      TEMPO 2805/2809 RA BKN025
     FM280900 01011KT 4SM RA VCTS BKN007 OVC040CB
     FM281400 36011KT 6SM -SHRA BKN035 OVC040
     FM281800 34012G18KT P6SM BKN100=



000
FTUS41 KBUF 280300 AAA
TAFJHW
TAF AMD
KJHW 280330Z 2804/2824 VRB04KT P6SM VCTS BKN060CB OVC110
      TEMPO 2804/2806 3SM -TSRA BKN018CB
     FM280700 35009KT 2SM RA VCTS BKN007 OVC035CB
     FM281100 35010KT 6SM -SHRA BKN012 OVC040
     FM281700 35011KT 6SM BR VCSH BKN015 OVC250
     FM282200 33011KT P6SM BKN035
      AMD LTD TO CLD VIS AND WIND=



000
FTUS41 KBUF 280100 AAA
TAFIAG
TAF AMD
KIAG 280155Z 2802/2824 VRB04KT P6SM -TSRA VCSH BKN060CB OVC100
     FM280300 01004KT 6SM -SHRA VCTS BKN040CB OVC070
      TEMPO 2804/2808 2SM +RA BKN025
     FM280800 01011KT 3SM RA VCTS BKN007 OVC040CB
     FM281400 36011KT 6SM -SHRA BKN035 OVC040
     FM281800 34012G18KT P6SM BKN100=



000
FTUS41 KBUF 272300
TAFJHW
TAF
KJHW 272339Z 2800/2824 20010G16KT 6SM -SHRA VCTS OVC060CB
     FM280200 VRB03KT 3SM +RA VCTS BKN015CB OVC040
      TEMPO 2802/2806 2SM -TSRA BKN012CB
     FM280600 35009KT 2SM RA VCTS BKN007 OVC035CB
     FM281100 35010KT 6SM -SHRA BKN012 OVC040
     FM281700 35011KT 6SM BR VCSH BKN015 OVC250
     FM282200 33011KT P6SM BKN035
      AMD LTD TO CLD VIS AND WIND=



000
FTUS41 KBUF 272300
TAFIAG
TAF
KIAG 272339Z 2800/2824 19004KT P6SM OVC120
     FM280100 VRB03KT P6SM VCSH OVC060
     FM280300 01004KT 6SM -SHRA VCTS BKN040CB OVC070
      TEMPO 2804/2808 2SM +RA BKN025
     FM280800 01011KT 3SM RA VCTS BKN007 OVC040CB
     FM281400 36011KT 6SM -SHRA BKN035 OVC040
     FM281800 34012G18KT P6SM BKN100=



000
FTUS41 KBUF 272300
TAFROC
TAF
KROC 272339Z 2800/2824 VRB03KT P6SM OVC150
     FM280200 VRB03KT P6SM VCSH BKN080 OVC250
     FM280400 01004KT 5SM -SHRA VCTS OVC040CB
      TEMPO 2805/2809 +RA BKN025
     FM280900 01011KT 4SM RA VCTS BKN007 OVC040CB
     FM281400 36011KT 6SM -SHRA BKN035 OVC040
     FM281800 34012G18KT P6SM BKN100=



000
FTUS41 KBUF 272300
TAFART
TAF
KART 272339Z 2800/2824 25006KT P6SM SCT200
     FM280500 04005KT P6SM VCSH BKN100 BKN250
     FM280700 03007KT 6SM -SHRA VCTS SCT040CB OVC090
     FM281000 03009KT 6SM RA SCT040 OVC070
     FM281300 02011KT 2SM RA BKN035 OVC040
     FM281500 01012KT 6SM -SHRA BKN035 OVC040
     FM282000 34012KT 6SM BR VCSH OVC035=



000
FTUS41 KBUF 272300
TAFBUF
TAF
KBUF 272339Z 2800/2824 20005KT P6SM OVC090
     FM280100 VRB03KT P6SM VCSH OVC060
     FM280300 01004KT 6SM -SHRA VCTS BKN040CB OVC070
      TEMPO 2804/2808 2SM +RA BKN025
     FM280800 01011KT 4SM RA VCTS BKN007 OVC040CB
     FM281400 36011KT 6SM -SHRA BKN035 OVC040
     FM281800 34012G18KT P6SM BKN100=



000
FTUS41 KBUF 272100 AAA
TAFROC
TAF AMD
KROC 272117Z 2721/2818 27010KT P6SM SCT060 BKN250
     FM280400 01006KT 6SM -SHRA OVC040
     FM280700 36012KT 4SM RA OVC015
     FM281000 35015KT 3SM RA OVC008
     FM281600 34015KT 5SM -SHRA BR OVC015=



000
FTUS41 KBUF 272100 AAA
TAFART
TAF AMD
KART 272117Z 2721/2818 25012KT P6SM SKC
     FM272300 VRB05KT P6SM SCT040 BKN150
     FM280800 02008KT 6SM -SHRA OVC050
     FM281200 36012KT 3SM RA OVC015=



000
FTUS41 KBUF 272100 AAA
TAFBUF
TAF AMD
KBUF 272117Z 2721/2818 26011KT P6SM SCT200 BKN250
     FM280200 35006KT 6SM -SHRA OVC040
     FM280400 01008KT 5SM RA OVC025
     FM280800 36012KT 3SM RA OVC008
     FM281400 34014KT 5SM -SHRA BR OVC015=



000
FTUS41 KBUF 272100 AAB
TAFJHW
TAF AMD
KJHW 272117Z 2721/2818 31006KT P6SM SCT100
     FM280000 22005KT 5SM -TSRA OVC040CB
     FM280200 01005KT 4SM RA OVC025
     FM280700 34008KT 2SM -SHRA BR OVC005
     FM281500 34012KT 5SM -SHRA BR OVC015
      AMD LTD TO CLD VIS AND WIND=



000
FTUS41 KBUF 272100 AAA
TAFIAG
TAF AMD
KIAG 272117Z 2721/2818 22010G16KT P6SM BKN250
     FM280200 01006KT 6SM -SHRA OVC040
     FM280400 01008KT 5SM RA OVC025
     FM280800 35012KT 3SM RA OVC008
     FM281400 33014KT 5SM -SHRA BR OVC015=



000
FTUS41 KBUF 271900 AAA
TAFJHW
TAF AMD
KJHW 271952Z 2720/2818 28010KT P6SM SCT040 BKN150
     FM280000 22005KT 5SM -TSRA OVC040CB
     FM280200 01005KT 4SM RA OVC025
     FM280700 34008KT 2SM -SHRA BR OVC005
     FM281500 34012KT 5SM -SHRA BR OVC015
      AMD LTD TO CLD VIS AND WIND=



000
FTUS41 KBUF 271700 CCA
TAFART
TAF COR
KART 271750Z 2718/2818 24010KT P6SM SCT025
     FM271900 24012KT P6SM SCT030
     FM272300 VRB05KT P6SM SCT040 BKN150
     FM280800 02008KT 6SM -SHRA OVC050
     FM281200 36012KT 3SM RA OVC015=



000
FTUS41 KBUF 271700
TAFIAG
TAF
KIAG 271737Z 2718/2818 21012KT P6SM SCT040 BKN150
     FM280200 01006KT 6SM -SHRA OVC040
     FM280400 01008KT 5SM RA OVC025
     FM280800 35012KT 3SM RA OVC008
     FM281400 33014KT 5SM -SHRA BR OVC015=



000
FTUS41 KBUF 271700
TAFJHW
TAF
KJHW 271737Z 2718/2818 28010KT P6SM SCT035 BKN150
     FM280000 22005KT 4SM -SHRA VCTS OVC040CB
     FM280200 01005KT 4SM RA OVC025
     FM280700 34008KT 2SM -SHRA BR OVC005
     FM281500 34012KT 5SM -SHRA BR OVC015
      AMD LTD TO CLD VIS AND WIND=



000
FTUS41 KBUF 271700
TAFROC
TAF
KROC 271737Z 2718/2818 28012KT P6SM SCT040
     FM272000 31008KT P6SM SCT040 BKN150
     FM280400 01006KT 6SM -SHRA OVC040
     FM280700 36012KT 4SM RA OVC015
     FM281000 35015KT 3SM RA OVC008
     FM281600 34015KT 5SM -SHRA BR OVC015=



000
FTUS41 KBUF 271700
TAFART
TAF
KART 271737Z 2718/2818 24010KT P6SM BKN025
     FM271900 24012KT P6SM SCT030
     FM272300 VRB05KT P6SM SCT040 BKN150
     FM280800 02008KT 6SM -SHRA OVC050
     FM281200 36012KT 3SM RA OVC015=



000
FTUS41 KBUF 271700
TAFBUF
TAF
KBUF 271737Z 2718/2818 24012KT P6SM SCT040 BKN150
     FM280200 35006KT 6SM -SHRA OVC040
     FM280400 01008KT 5SM RA OVC025
     FM280800 36012KT 3SM RA OVC008
     FM281400 34014KT 5SM -SHRA BR OVC015=



000
FTUS41 KBUF 271400 AAB
TAFART
TAF AMD
KART 271429Z 2714/2812 21010KT P6SM BKN015
     FM271700 24012KT P6SM SCT040
     FM272300 VRB05KT P6SM SCT050 BKN150
     FM280700 02005KT P6SM VCSH BKN080
     FM280900 02010KT 6SM -SHRA OVC050=



000
FTUS41 KBUF 271400 AAA
TAFIAG
TAF AMD
KIAG 271411Z 2714/2812 30010KT P6SM SCT025
     FM271900 26012KT P6SM SCT040 BKN150
     FM280100 02004KT 6SM -SHRA OVC040
     FM280400 03008KT 5SM RA OVC025
     FM280800 02012KT 3SM RA OVC008=



000
FTUS41 KBUF 271400 AAA
TAFJHW
TAF AMD
KJHW 271411Z 2714/2812 24008KT P6SM BKN025
     FM271500 25010KT P6SM SCT025
     FM271900 29010KT P6SM SCT030 BKN150
     FM280000 22005KT 4SM -SHRA VCTS OVC040CB
     FM280200 01005KT 4SM RA OVC025
     FM280600 34008KT 2SM RA BR OVC005
      AMD LTD TO CLD VIS AND WIND=



000
FTUS41 KBUF 271400 AAA
TAFART
TAF AMD
KART 271411Z 2714/2812 21010KT P6SM BKN040
     FM271800 24012KT P6SM SCT050
     FM272300 VRB05KT P6SM SCT050 BKN150
     FM280700 02005KT P6SM VCSH BKN080
     FM280900 02010KT 6SM -SHRA OVC050=



000
FTUS41 KBUF 271400 AAA
TAFBUF
TAF AMD
KBUF 271411Z 2714/2812 26010KT P6SM SCT025
     FM271700 25012KT P6SM SCT040 BKN150
     FM280100 35005KT 6SM -SHRA OVC040
     FM280400 02008KT 5SM RA OVC025
     FM280800 02012KT 3SM RA OVC008=



000
FTUS41 KBUF 271400 AAA
TAFROC
TAF AMD
KROC 271411Z 2714/2812 28012KT P6SM BKN025
     FM271500 28012KT P6SM SCT030
     FM272000 30008KT P6SM SCT040 BKN150
     FM280300 01006KT 6SM -SHRA OVC040
     FM280700 02012KT 4SM RA OVC015=



000
FTUS41 KBUF 271100
TAFROC
TAF
KROC 271138Z 2712/2812 24012KT P6SM SCT045 BKN110
      TEMPO 2712/2714 3SM BR
     FM271400 27013KT P6SM BKN050
     FM272200 30008KT P6SM BKN100
     FM280000 34004KT P6SM VCSH BKN100
     FM280200 35004KT 6SM -SHRA BKN060
     FM280600 03007KT 4SM RA OVC045
     FM281000 01011KT 4SM RA OVC025=



000
FTUS41 KBUF 271100
TAFIAG
TAF
KIAG 271138Z 2712/2812 25011KT P6SM SCT020 BKN250
      TEMPO 2712/2714 BKN020
     FM271400 28010KT P6SM BKN150
     FM271900 24012KT P6SM BKN100
     FM280000 34005KT P6SM VCSH BKN090
     FM280200 02004KT 6SM -SHRA BKN050
     FM280500 03006KT 4SM RA OVC040
     FM281000 02011KT 4SM RA OVC020=



000
FTUS41 KBUF 271100
TAFART
TAF
KART 271138Z 2712/2812 21008KT P6SM BKN110 OVC250
     FM271400 23013KT P6SM BKN050
     FM271800 22013KT P6SM SCT110
     FM272300 25007KT P6SM SCT120 BKN250
     FM280500 02004KT P6SM VCSH BKN100
     FM280800 02009KT 6SM -SHRA BKN070
     FM281100 02012KT 4SM RA OVC050=



000
FTUS41 KBUF 271100
TAFJHW
TAF
KJHW 271138Z 2712/2812 24006KT 5SM BR BKN010
      TEMPO 2712/2714 2SM BR
     FM271400 28011KT P6SM BKN020
     FM271600 27009KT P6SM BKN060
     FM272300 22005KT 4SM SHRA VCTS BKN060CB
     FM280000 VRB03KT 4SM SHRA BKN040
     FM280500 04005KT 4SM RA OVC025
     FM281000 35009KT 4SM RA OVC003
      AMD LTD TO CLD VIS AND WIND=



000
FTUS41 KBUF 271100
TAFBUF
TAF
KBUF 271138Z 2712/2812 24012KT P6SM BKN015
     FM271400 27011KT P6SM SCT030 BKN100
     FM272000 25012KT P6SM BKN100
     FM280100 35005KT 4SM SHRA BKN070
     FM280300 03006KT 6SM -SHRA BKN040
     FM280500 03006KT 4SM RA OVC035
     FM280900 03008KT 4SM RA OVC020=



000
FTUS41 KBUF 271000 AAB
TAFIAG
TAF AMD
KIAG 271040Z 2711/2806 25012KT P6SM OVC060
      TEMPO 2711/2713 5SM BR BKN025
     FM271300 24011KT P6SM SCT025 SCT120
     FM271800 24013KT P6SM SCT250
     FM272000 25010KT P6SM BKN110
     FM280000 VRB03KT P6SM VCSH BKN080
     FM280300 VRB03KT 6SM -SHRA OVC040=



000
FTUS41 KBUF 270900 AAC
TAFBUF
TAF AMD
KBUF 270936Z 2710/2806 24009KT P6SM BKN010 OVC060
     FM271200 24007KT P6SM SCT030 BKN080
     FM271700 24013KT P6SM SCT130
     FM272300 25006KT P6SM BKN110
     FM280100 VRB03KT P6SM VCSH BKN070
     FM280300 VRB03KT 6SM -SHRA BKN040=



000
FTUS41 KBUF 270900 AAC
TAFJHW
TAF AMD
KJHW 270936Z 2710/2806 23004KT 4SM BR OVC004
     FM271300 26006KT P6SM SCT010 BKN030 BKN250
     FM271600 25007KT P6SM BKN120 BKN200
     FM272100 23008KT P6SM VCSH BKN080
     FM280100 VRB03KT 6SM -SHRA OVC030
      AMD LTD TO CLD VIS AND WIND=



000
FTUS41 KBUF 270900 AAA
TAFIAG
TAF AMD
KIAG 270936Z 2710/2806 24010KT 6SM BR SCT045 OVC060
     FM271200 24011KT P6SM SCT120
     FM271800 24013KT P6SM SCT250
     FM272000 25010KT P6SM BKN110
     FM280000 VRB03KT P6SM VCSH BKN080
     FM280300 VRB03KT 6SM -SHRA OVC040=



000
FTUS41 KBUF 270900 AAB
TAFROC
TAF AMD
KROC 270936Z 2710/2806 23006KT P6SM BKN015
     FM271100 23005KT P6SM BKN035 BKN250
     FM271400 26008KT P6SM BKN200
     FM271900 29008KT P6SM BKN110
     FM272300 35005KT P6SM BKN110
     FM280400 00000KT P6SM VCSH OVC045=



000
FTUS41 KBUF 270900 AAA
TAFART
TAF AMD
KART 270936Z 2710/2806 24006KT P6SM -RA VCTS BKN035CB
     FM271300 21007KT P6SM BKN035 BKN250
     FM271700 23010KT P6SM BKN200
     FM280000 VRB03KT P6SM BKN120=



000
FTUS41 KBUF 270700 AAB
TAFBUF
TAF AMD
KBUF 270755Z 2708/2806 23011KT P6SM BKN030
      TEMPO 2708/2710 BKN008
     FM271000 24007KT P6SM SCT030 BKN080
     FM271700 24013KT P6SM SCT130
     FM272300 25006KT P6SM BKN110
     FM280100 VRB03KT P6SM VCSH BKN070
     FM280300 VRB03KT 6SM -SHRA BKN040=



000
FTUS41 KBUF 270700 AAB
TAFJHW
TAF AMD
KJHW 270727Z 2707/2806 21006KT P6SM OVC007
      TEMPO 2708/2709 4SM TSRA OVC007CB
     FM271300 26006KT P6SM BKN050 BKN250
     FM271600 25007KT P6SM BKN120 BKN200
     FM272100 23008KT P6SM VCSH BKN080
     FM280100 VRB03KT 6SM -SHRA OVC030
      AMD LTD TO CLD VIS AND WIND=



000
FTUS41 KBUF 270700 AAA
TAFROC
TAF AMD
KROC 270721Z 2707/2806 24006KT P6SM SCT030 BKN060 BKN100
      TEMPO 2708/2710 4SM TSRA BKN020CB
     FM271000 23005KT P6SM BKN035 BKN250
     FM271400 26008KT P6SM BKN200
     FM271900 29008KT P6SM BKN110
     FM272300 35005KT P6SM BKN110
     FM280400 00000KT P6SM VCSH OVC045=



000
FTUS41 KBUF 270600 AAA
TAFJHW
TAF AMD
KJHW 270653Z 2707/2806 22008KT 5SM BR OVC009
     FM271300 26006KT P6SM BKN050 BKN250
     FM271600 25007KT P6SM BKN120 BKN200
     FM272100 23008KT P6SM VCSH BKN080
     FM280100 VRB03KT 6SM -SHRA OVC030
      AMD LTD TO CLD VIS AND WIND=



000
FTUS41 KBUF 270600 AAA
TAFBUF
TAF AMD
KBUF 270634Z 2707/2806 23011KT P6SM BKN029 OVC035
     FM271000 24007KT P6SM SCT030 BKN080
     FM271700 24013KT P6SM SCT130
     FM272300 25006KT P6SM BKN110
     FM280100 VRB03KT P6SM VCSH BKN070
     FM280300 VRB03KT 6SM -SHRA BKN040=



000
FTUS41 KBUF 270500
TAFROC
TAF
KROC 270523Z 2706/2806 20003KT P6SM BKN060 BKN200
     FM271000 23005KT P6SM BKN035 BKN250
     FM271400 26008KT P6SM BKN200
     FM271900 29008KT P6SM BKN110
     FM272300 35005KT P6SM BKN110
     FM280400 00000KT P6SM VCSH OVC045=



000
FTUS41 KBUF 270500
TAFBUF
TAF
KBUF 270523Z 2706/2806 23012G18KT P6SM BKN040 BKN130
     FM270700 22008KT P6SM BKN030 BKN120 BKN250
     FM271700 24013KT P6SM SCT130
     FM272300 25006KT P6SM BKN110
     FM280100 VRB03KT P6SM VCSH BKN070
     FM280300 VRB03KT 6SM -SHRA BKN040=



000
FTUS41 KBUF 270500
TAFART
TAF
KART 270523Z 2706/2806 00000KT P6SM OVC060
     FM270800 20005KT 6SM -SHRA VCTS BKN035CB OVC250
     FM271000 20005KT 6SM -SHRA VCTS BKN025CB OVC250
     FM271300 21007KT P6SM VCTS BKN030CB BKN250
     FM271700 23010KT P6SM BKN200
     FM280000 VRB03KT P6SM BKN120=



000
FTUS41 KBUF 270500
TAFJHW
TAF
KJHW 270523Z 2706/2806 19010G14KT P6SM BKN015 OVC040
     FM270900 24006KT 3SM BR BKN007 BKN250
     FM271300 26006KT P6SM BKN050 BKN250
     FM271600 25007KT P6SM BKN120 BKN200
     FM272100 23008KT P6SM VCSH BKN080
     FM280100 VRB03KT 6SM -SHRA OVC030
      AMD LTD TO CLD VIS AND WIND=



000
FTUS41 KBUF 270500
TAFIAG
TAF
KIAG 270523Z 2706/2806 23012KT P6SM FEW050 BKN090
     FM270800 23008KT P6SM BKN080 BKN250
     FM271800 24011KT P6SM SCT120
     FM272000 25010KT P6SM BKN110
     FM280000 VRB03KT P6SM VCSH BKN080
     FM280300 VRB03KT 6SM -SHRA OVC040=



    US Dept of Commerce
    National Oceanic and Atmospheric Administration
    National Weather Service
    1325 East West Highway
    Silver Spring, MD 20910
    Page Author: NWS Internet Services Team
Disclaimer
Information Quality
Credits
Glossary
Privacy Policy
Freedom of Information Act (FOIA)
About Us
Career Opportunities